createdAt,value
2018-10-16T00:02:20.976Z,98821.61
2018-10-16T00:04:49.317Z,98820.97
2018-10-16T00:07:17.633Z,98827.14
2018-10-16T00:09:46.000Z,98832.39
2018-10-16T00:12:14.309Z,98834.52
2018-10-16T00:14:42.599Z,98834.92
2018-10-16T00:17:10.938Z,98837.05
2018-10-16T00:19:39.229Z,98833.36
2018-10-16T00:22:07.578Z,98836.61
2018-10-16T00:24:35.888Z,98832.39
2018-10-16T00:27:04.183Z,98834.48
2018-10-16T00:29:32.509Z,98833.05
2018-10-16T00:32:00.836Z,98842.27
2018-10-16T00:34:29.166Z,98846.17
2018-10-16T00:36:57.489Z,98841.40
2018-10-16T00:39:25.809Z,98861.53
2018-10-16T00:41:55.365Z,98850.06
2018-10-16T00:44:23.689Z,98852.55
2018-10-16T00:46:52.006Z,98855.88
2018-10-16T00:49:20.329Z,98860.55
2018-10-16T00:51:48.646Z,98860.06
2018-10-16T00:54:16.930Z,98855.97
2018-10-16T00:56:47.289Z,98861.42
2018-10-16T00:59:15.627Z,98854.48
2018-10-16T01:01:43.922Z,98852.41
2018-10-16T01:04:12.245Z,98850.39
2018-10-16T01:06:53.336Z,98855.13
2018-10-16T01:09:21.750Z,98861.57
2018-10-16T01:11:50.124Z,98859.61
2018-10-16T01:14:18.539Z,98848.14
2018-10-16T01:16:46.978Z,98854.97
2018-10-16T01:19:15.402Z,98852.46
2018-10-16T01:21:43.790Z,98856.19
2018-10-16T01:24:12.237Z,98855.09
2018-10-16T01:26:40.670Z,98848.44
2018-10-16T01:29:09.042Z,98850.78
2018-10-16T01:31:37.576Z,98842.08
2018-10-16T01:34:05.936Z,98847.11
2018-10-16T01:36:34.295Z,98853.19
2018-10-16T01:39:02.685Z,98851.95
2018-10-16T01:41:31.098Z,98847.95
2018-10-16T01:43:59.468Z,98852.72
2018-10-16T01:46:27.838Z,98854.95
2018-10-16T01:48:56.205Z,98853.61
2018-10-16T01:51:24.574Z,98854.28
2018-10-16T01:53:52.934Z,98857.45
2018-10-16T01:56:21.336Z,98855.32
2018-10-16T01:58:49.666Z,98857.73
2018-10-16T02:01:18.097Z,98855.52
2018-10-16T02:03:46.475Z,98857.95
2018-10-16T02:06:14.877Z,98849.59
2018-10-16T02:08:43.226Z,98858.76
2018-10-16T02:11:11.612Z,98855.05
2018-10-16T02:13:39.980Z,98849.37
2018-10-16T02:16:08.629Z,98852.98
2018-10-16T02:18:36.954Z,98858.63
2018-10-16T02:21:05.528Z,98867.19
2018-10-16T02:23:33.950Z,98858.11
2018-10-16T02:26:02.313Z,98864.41
2018-10-16T02:28:30.725Z,98858.47
2018-10-16T02:30:59.063Z,98861.14
2018-10-16T02:33:27.715Z,98862.82
2018-10-16T02:35:56.043Z,98862.60
2018-10-16T02:38:24.395Z,98859.18
2018-10-16T02:40:52.781Z,98858.84
2018-10-16T02:43:21.136Z,98859.28
2018-10-16T02:45:49.529Z,98864.74
2018-10-16T02:48:17.915Z,98856.13
2018-10-16T02:50:46.251Z,98861.23
2018-10-16T02:53:14.643Z,98861.50
2018-10-16T02:55:43.016Z,98867.05
2018-10-16T02:58:11.399Z,98861.49
2018-10-16T03:00:41.183Z,98872.25
2018-10-16T03:03:09.616Z,98860.24
2018-10-16T03:05:38.084Z,98867.42
2018-10-16T03:08:06.921Z,98856.80
2018-10-16T03:10:35.331Z,98864.69
2018-10-16T03:13:03.741Z,98866.21
2018-10-16T03:15:32.080Z,98866.95
2018-10-16T03:18:00.462Z,98875.52
2018-10-16T03:20:28.886Z,98874.05
2018-10-16T03:22:57.309Z,98877.44
2018-10-16T03:25:25.674Z,98878.15
2018-10-16T03:27:54.063Z,98880.21
2018-10-16T03:30:22.483Z,98884.52
2018-10-16T03:32:50.867Z,98884.73
2018-10-16T03:35:19.222Z,98883.28
2018-10-16T03:37:47.616Z,98877.34
2018-10-16T03:40:16.060Z,98888.44
2018-10-16T03:42:44.398Z,98883.22
2018-10-16T03:45:13.262Z,98890.38
2018-10-16T03:47:41.680Z,98898.09
2018-10-16T03:50:10.738Z,98902.61
2018-10-16T03:52:39.306Z,98887.23
2018-10-16T03:55:08.098Z,98900.19
2018-10-16T03:57:36.532Z,98906.33
2018-10-16T04:00:05.424Z,98908.40
2018-10-16T04:02:33.846Z,98910.84
2018-10-16T04:05:02.207Z,98911.34
2018-10-16T04:07:30.594Z,98911.43
2018-10-16T04:09:59.123Z,98912.75
2018-10-16T04:12:27.524Z,98909.38
2018-10-16T04:14:55.865Z,98914.34
2018-10-16T04:17:24.238Z,98915.06
2018-10-16T04:19:52.980Z,98917.47
2018-10-16T04:22:21.462Z,98911.07
2018-10-16T04:24:49.931Z,98916.61
2018-10-16T04:27:18.291Z,98912.28
2018-10-16T04:29:46.628Z,98910.31
2018-10-16T04:32:14.974Z,98917.94
2018-10-16T04:34:43.319Z,98920.60
2018-10-16T04:37:11.811Z,98922.91
2018-10-16T04:39:40.147Z,98923.38
2018-10-16T04:42:08.456Z,98919.53
2018-10-16T04:44:36.787Z,98924.01
2018-10-16T04:47:05.491Z,98927.28
2018-10-16T04:49:33.825Z,98924.70
2018-10-16T04:52:02.151Z,98925.08
2018-10-16T04:54:30.513Z,98923.88
2018-10-16T04:56:58.834Z,98924.50
2018-10-16T04:59:27.226Z,98917.22
2018-10-16T05:01:55.563Z,98926.06
2018-10-16T05:04:23.935Z,98927.88
2018-10-16T05:06:52.295Z,98930.16
2018-10-16T05:09:20.651Z,98923.89
2018-10-16T05:11:50.880Z,98932.34
2018-10-16T05:14:19.275Z,98929.44
2018-10-16T05:16:47.664Z,98929.81
2018-10-16T05:19:16.113Z,98933.20
2018-10-16T05:21:44.580Z,98928.35
2018-10-16T05:24:14.247Z,98935.24
2018-10-16T05:26:42.623Z,98939.49
2018-10-16T05:29:12.488Z,98942.61
2018-10-16T05:31:40.866Z,98937.67
2018-10-16T05:34:10.323Z,98948.06
2018-10-16T05:36:38.967Z,98949.50
2018-10-16T05:39:11.150Z,98951.95
2018-10-16T05:41:39.967Z,98954.48
2018-10-16T05:44:08.495Z,98961.60
2018-10-16T05:46:37.040Z,98956.78
2018-10-16T05:49:05.684Z,98957.98
2018-10-16T05:51:34.009Z,98961.48
2018-10-16T05:54:02.430Z,98968.73
2018-10-16T05:56:31.207Z,98967.27
2018-10-16T05:59:00.138Z,98972.24
2018-10-16T06:01:37.527Z,98971.77
2018-10-16T06:04:06.997Z,98974.17
2018-10-16T06:06:35.366Z,98969.09
2018-10-16T06:09:05.197Z,98965.58
2018-10-16T06:11:33.508Z,98967.28
2018-10-16T06:14:02.057Z,98973.81
2018-10-16T06:16:30.517Z,98977.05
2018-10-16T06:18:58.885Z,98986.15
2018-10-16T06:21:27.346Z,98985.28
2018-10-16T06:23:55.715Z,98986.02
2018-10-16T06:26:24.119Z,98982.98
2018-10-16T06:28:52.430Z,98990.27
2018-10-16T06:31:20.742Z,98991.44
2018-10-16T06:33:49.280Z,98995.80
2018-10-16T06:36:17.611Z,98999.64
2018-10-16T06:38:46.029Z,98997.78
2018-10-16T06:41:14.499Z,98994.23
2018-10-16T06:43:42.941Z,98993.10
2018-10-16T06:46:11.482Z,98988.05
2018-10-16T06:48:40.089Z,98989.45
2018-10-16T06:51:08.236Z,98981.22
2018-10-16T06:53:36.612Z,98978.55
2018-10-16T06:56:05.222Z,98973.92
2018-10-16T06:58:33.699Z,98977.10
2018-10-16T07:01:02.291Z,98969.19
2018-10-16T07:03:30.706Z,98970.31
2018-10-16T07:05:59.082Z,98963.08
2018-10-16T07:08:27.436Z,98957.82
2018-10-16T07:10:55.840Z,98962.92
2018-10-16T07:13:43.936Z,98959.66
2018-10-16T07:16:12.914Z,98963.69
2018-10-16T07:18:41.604Z,98971.08
2018-10-16T07:21:10.551Z,98974.33
2018-10-16T07:23:38.863Z,98972.77
2018-10-16T07:26:07.282Z,98981.75
2018-10-16T07:28:35.626Z,98985.69
2018-10-16T07:31:03.990Z,98984.59
2018-10-16T07:33:33.398Z,98986.28
2018-10-16T07:36:01.744Z,98980.44
2018-10-16T07:38:31.176Z,98984.76
2018-10-16T07:40:59.483Z,98983.55
2018-10-16T07:43:27.861Z,98989.48
2018-10-16T07:45:56.138Z,98985.88
2018-10-16T07:48:26.588Z,98985.30
2018-10-16T07:50:59.018Z,98990.41
2018-10-16T07:53:27.357Z,98993.53
2018-10-16T07:55:56.268Z,99001.16
2018-10-16T07:58:24.601Z,99001.67
2018-10-16T08:00:52.951Z,99002.10
2018-10-16T08:03:21.257Z,99010.14
2018-10-16T08:05:49.634Z,99011.92
2018-10-16T08:08:17.965Z,99005.51
2018-10-16T08:10:46.292Z,99011.13
2018-10-16T08:13:14.669Z,99010.04
2018-10-16T08:15:43.009Z,99017.26
2018-10-16T08:18:11.323Z,99026.84
2018-10-16T08:20:39.645Z,99021.80
2018-10-16T08:23:07.940Z,99027.50
2018-10-16T08:25:36.256Z,99029.37
2018-10-16T08:28:04.629Z,99024.77
2018-10-16T08:30:33.009Z,99021.31
2018-10-16T08:33:01.272Z,99021.65
2018-10-16T08:35:29.553Z,99023.97
2018-10-16T08:39:06.970Z,99020.37
2018-10-16T08:41:40.242Z,99017.91
2018-10-16T08:45:16.390Z,99019.17
2018-10-16T08:47:56.453Z,99018.08
2018-10-16T08:50:37.306Z,99023.39
2018-10-16T08:53:05.618Z,99013.86
2018-10-16T08:55:34.474Z,99007.38
2018-10-16T08:58:03.484Z,99009.31
2018-10-16T09:00:31.816Z,99007.15
2018-10-16T09:03:00.150Z,99011.03
2018-10-16T09:05:28.762Z,99017.45
2018-10-16T09:07:57.134Z,99015.95
2018-10-16T09:10:25.703Z,99017.97
2018-10-16T09:12:54.013Z,99022.22
2018-10-16T09:15:22.922Z,99020.55
2018-10-16T09:17:51.253Z,99024.75
2018-10-16T09:20:19.560Z,99028.95
2018-10-16T09:22:47.982Z,99039.42
2018-10-16T09:25:16.306Z,99038.76
2018-10-16T09:27:44.641Z,99039.09
2018-10-16T09:30:13.982Z,99038.45
2018-10-16T09:32:42.366Z,99038.45
2018-10-16T09:35:11.973Z,99041.14
2018-10-16T09:37:40.421Z,99037.44
2018-10-16T09:40:10.739Z,99040.80
2018-10-16T09:42:39.060Z,99039.16
2018-10-16T09:45:08.385Z,99037.14
2018-10-16T09:47:36.702Z,99041.34
2018-10-16T09:50:05.904Z,99037.63
2018-10-16T09:52:34.225Z,99040.05
2018-10-16T09:55:02.509Z,99042.74
2018-10-16T09:57:30.813Z,99043.59
2018-10-16T09:59:59.129Z,99036.81
2018-10-16T10:03:30.431Z,99037.50
2018-10-16T10:05:58.709Z,99041.88
2018-10-16T10:08:27.003Z,99037.64
2018-10-16T10:10:55.314Z,99046.39
2018-10-16T10:13:23.651Z,99046.88
2018-10-16T10:15:52.093Z,99044.31
2018-10-16T10:18:20.424Z,99038.75
2018-10-16T10:20:48.716Z,99040.85
2018-10-16T10:23:17.057Z,99043.09
2018-10-16T10:25:45.333Z,99037.91
2018-10-16T10:28:13.910Z,99036.15
2018-10-16T10:30:42.248Z,99033.22
2018-10-16T10:33:10.521Z,99034.47
2018-10-16T10:35:38.911Z,99035.41
2018-10-16T10:38:07.201Z,99037.08
2018-10-16T10:40:35.476Z,99033.92
2018-10-16T10:43:03.825Z,99035.36
2018-10-16T10:45:32.109Z,99029.66
2018-10-16T10:48:00.459Z,99033.34
2018-10-16T10:50:28.895Z,99023.66
2018-10-16T10:52:57.066Z,99027.16
2018-10-16T10:55:25.431Z,99021.89
2018-10-16T10:57:53.762Z,99023.33
2018-10-16T11:00:22.044Z,99026.74
2018-10-16T11:02:50.350Z,99033.11
2018-10-16T11:05:18.683Z,99038.78
2018-10-16T11:07:47.007Z,99034.72
2018-10-16T11:10:15.362Z,99039.48
2018-10-16T11:12:44.623Z,99043.11
2018-10-16T11:15:13.000Z,99043.63
2018-10-16T11:17:41.460Z,99039.38
2018-10-16T11:20:11.769Z,99045.22
2018-10-16T11:22:40.138Z,99041.22
2018-10-16T11:25:09.336Z,99039.95
2018-10-16T11:27:37.941Z,99045.92
2018-10-16T11:30:10.159Z,99042.17
2018-10-16T11:32:38.622Z,99044.72
2018-10-16T11:35:07.535Z,99040.84
2018-10-16T11:37:35.934Z,99042.66
2018-10-16T11:40:04.349Z,99044.43
2018-10-16T11:42:32.645Z,99043.30
2018-10-16T11:45:01.340Z,99041.78
2018-10-16T11:47:31.299Z,99044.52
2018-10-16T11:49:59.680Z,99039.98
2018-10-16T11:52:28.031Z,99042.55
2018-10-16T11:54:56.431Z,99043.52
2018-10-16T11:57:24.785Z,99036.79
2018-10-16T11:59:53.066Z,99032.87
2018-10-16T12:02:21.405Z,99031.81
2018-10-16T12:04:49.843Z,99041.53
2018-10-16T12:07:18.700Z,99042.80
2018-10-16T12:09:47.226Z,99037.27
2018-10-16T12:12:15.570Z,99037.31
2018-10-16T12:14:43.917Z,99037.64
2018-10-16T12:17:33.068Z,99046.41
2018-10-16T12:20:05.903Z,99038.00
2018-10-16T12:22:34.160Z,99039.75
2018-10-16T12:25:02.484Z,99042.94
2018-10-16T12:27:30.845Z,99035.17
2018-10-16T12:29:59.230Z,99038.10
2018-10-16T12:32:27.501Z,99042.09
2018-10-16T12:34:55.846Z,99037.19
2018-10-16T12:37:24.157Z,99037.94
2018-10-16T12:39:52.563Z,99035.58
2018-10-16T12:42:20.864Z,99025.66
2018-10-16T12:44:49.178Z,99034.28
2018-10-16T12:47:17.526Z,99030.69
2018-10-16T12:49:45.806Z,99029.02
2018-10-16T12:52:14.167Z,99032.05
2018-10-16T12:54:42.651Z,99024.75
2018-10-16T12:57:11.108Z,99024.44
2018-10-16T12:59:39.429Z,99024.47
2018-10-16T13:02:07.885Z,99016.91
2018-10-16T13:04:36.191Z,99014.45
2018-10-16T13:07:08.874Z,99016.65
2018-10-16T13:09:37.226Z,99018.61
2018-10-16T13:12:05.617Z,99013.38
2018-10-16T13:14:33.899Z,99014.98
2018-10-16T13:17:02.377Z,99013.03
2018-10-16T13:19:30.553Z,99021.52
2018-10-16T13:21:58.944Z,99018.59
2018-10-16T13:24:27.298Z,99023.39
2018-10-16T13:26:55.594Z,99024.78
2018-10-16T13:29:24.030Z,99029.89
2018-10-16T13:31:52.263Z,99024.80
2018-10-16T13:34:20.597Z,99025.47
2018-10-16T13:36:48.992Z,99026.66
2018-10-16T13:39:17.297Z,99020.91
2018-10-16T13:41:45.678Z,99019.12
2018-10-16T13:44:14.139Z,99028.82
2018-10-16T13:46:42.346Z,99022.72
2018-10-16T13:49:10.613Z,99026.80
2018-10-16T13:51:38.977Z,99022.14
2018-10-16T13:54:07.385Z,99022.25
2018-10-16T13:56:35.714Z,99017.27
2018-10-16T13:59:04.183Z,99025.83
2018-10-16T14:01:32.509Z,99031.31
2018-10-16T14:04:00.853Z,99027.69
2018-10-16T14:06:29.412Z,99027.78
2018-10-16T14:08:57.685Z,99026.56
2018-10-16T14:11:26.142Z,99032.22
2018-10-16T14:13:54.495Z,99041.98
2018-10-16T14:16:22.821Z,99033.73
2018-10-16T14:18:51.091Z,99035.00
2018-10-16T14:21:19.392Z,99037.52
2018-10-16T14:23:47.681Z,99032.08
2018-10-16T14:26:16.069Z,99034.70
2018-10-16T14:28:44.421Z,99041.22
2018-10-16T14:31:12.783Z,99039.23
2018-10-16T14:33:41.154Z,99040.05
2018-10-16T14:36:09.406Z,99044.88
2018-10-16T14:38:37.720Z,99042.30
2018-10-16T14:41:06.039Z,99040.52
2018-10-16T14:43:34.337Z,99044.56
2018-10-16T14:46:03.199Z,99038.35
2018-10-16T14:48:31.506Z,99047.48
2018-10-16T14:50:59.770Z,99039.30
2018-10-16T14:53:28.113Z,99036.02
2018-10-16T14:55:56.393Z,99042.63
2018-10-16T14:58:24.713Z,99043.34
2018-10-16T15:00:52.981Z,99041.78
2018-10-16T15:03:21.287Z,99044.84
2018-10-16T15:05:49.591Z,99046.04
2018-10-16T15:08:17.946Z,99044.36
2018-10-16T15:10:46.185Z,99050.51
2018-10-16T15:13:14.503Z,99044.41
2018-10-16T15:15:42.768Z,99045.08
2018-10-16T15:18:11.080Z,99047.72
2018-10-16T15:20:39.429Z,99046.65
2018-10-16T15:23:07.743Z,99044.06
2018-10-16T15:25:36.057Z,99050.28
2018-10-16T15:28:04.390Z,99045.97
2018-10-16T15:30:32.667Z,99050.03
2018-10-16T15:33:00.955Z,99044.94
2018-10-16T15:35:29.317Z,99055.78
2018-10-16T15:37:57.623Z,99048.55
2018-10-16T15:40:25.922Z,99049.97
2018-10-16T15:42:54.375Z,99046.74
2018-10-16T15:45:22.697Z,99048.64
2018-10-16T15:47:50.992Z,99044.48
2018-10-16T15:50:19.473Z,99047.33
2018-10-16T15:52:47.802Z,99052.08
2018-10-16T15:55:16.114Z,99048.36
2018-10-16T15:57:44.460Z,99046.49
2018-10-16T16:00:16.289Z,99051.42
2018-10-16T16:02:44.627Z,99052.28
2018-10-16T16:05:13.359Z,99054.28
2018-10-16T16:07:41.705Z,99064.14
2018-10-16T16:10:12.152Z,99060.30
2018-10-16T16:12:40.453Z,99059.66
2018-10-16T16:15:09.827Z,99058.38
2018-10-16T16:17:38.217Z,99063.08
2018-10-16T16:20:08.106Z,99067.00
2018-10-16T16:22:36.461Z,99062.55
2018-10-16T16:25:05.751Z,99071.00
2018-10-16T16:27:34.039Z,99072.27
2018-10-16T16:30:02.395Z,99075.05
2018-10-16T16:32:30.661Z,99079.78
2018-10-16T16:34:58.951Z,99081.75
2018-10-16T16:37:27.566Z,99081.74
2018-10-16T16:39:55.891Z,99087.89
2018-10-16T16:42:24.186Z,99085.25
2018-10-16T16:44:52.666Z,99088.28
2018-10-16T16:47:21.106Z,99095.78
2018-10-16T16:49:49.410Z,99091.44
2018-10-16T16:52:17.733Z,99094.70
2018-10-16T16:54:46.030Z,99093.59
2018-10-16T16:57:14.294Z,99096.17
2018-10-16T16:59:42.595Z,99097.55
2018-10-16T17:02:10.968Z,99102.77
2018-10-16T17:04:39.323Z,99104.23
2018-10-16T17:07:07.563Z,99102.56
2018-10-16T17:09:36.086Z,99099.56
2018-10-16T17:12:04.759Z,99098.52
2018-10-16T17:14:33.044Z,99108.04
2018-10-16T17:17:01.454Z,99105.56
2018-10-16T17:19:29.791Z,99105.31
2018-10-16T17:21:58.247Z,99110.10
2018-10-16T17:24:26.722Z,99112.00
2018-10-16T17:26:55.140Z,99115.22
2018-10-16T17:29:23.421Z,99113.91
2018-10-16T17:31:51.665Z,99111.06
2018-10-16T17:34:20.052Z,99114.23
2018-10-16T17:36:48.313Z,99113.19
2018-10-16T17:39:16.606Z,99114.20
2018-10-16T17:41:44.885Z,99109.16
2018-10-16T17:44:13.181Z,99116.66
2018-10-16T17:46:41.458Z,99115.48
2018-10-16T17:49:09.757Z,99115.32
2018-10-16T17:51:38.080Z,99115.24
2018-10-16T17:54:06.382Z,99118.58
2018-10-16T17:56:34.852Z,99120.38
2018-10-16T17:59:03.287Z,99116.73
2018-10-16T18:01:31.614Z,99121.27
2018-10-16T18:04:00.002Z,99118.89
2018-10-16T18:06:28.313Z,99118.30
2018-10-16T18:08:56.582Z,99117.98
2018-10-16T18:11:24.985Z,99119.63
2018-10-16T18:13:53.297Z,99114.89
2018-10-16T18:16:21.698Z,99114.84
2018-10-16T18:18:49.985Z,99121.64
2018-10-16T18:21:19.842Z,99126.41
2018-10-16T18:23:48.790Z,99117.75
2018-10-16T18:26:17.213Z,99130.92
2018-10-16T18:28:45.520Z,99126.05
2018-10-16T18:31:13.843Z,99119.92
2018-10-16T18:33:48.480Z,99129.39
2018-10-16T18:36:16.826Z,99122.25
2018-10-16T18:38:45.112Z,99127.88
2018-10-16T18:41:13.445Z,99136.84
2018-10-16T18:43:41.725Z,99138.34
2018-10-16T18:46:10.143Z,99133.98
2018-10-16T18:48:38.557Z,99132.38
2018-10-16T18:51:08.696Z,99136.19
2018-10-16T18:53:43.563Z,99133.32
2018-10-16T18:56:12.066Z,99125.92
2018-10-16T18:58:40.485Z,99128.60
2018-10-16T19:01:08.804Z,99120.89
2018-10-16T19:03:37.141Z,99127.95
2018-10-16T19:06:05.541Z,99131.34
2018-10-16T19:08:34.033Z,99130.35
2018-10-16T19:11:02.568Z,99133.50
2018-10-16T19:13:30.919Z,99133.45
2018-10-16T19:15:59.248Z,99130.02
2018-10-16T19:18:27.535Z,99135.11
2018-10-16T19:20:55.929Z,99138.75
2018-10-16T19:23:30.750Z,99137.86
2018-10-16T19:25:59.127Z,99133.53
2018-10-16T19:28:27.487Z,99132.84
2018-10-16T19:30:55.850Z,99126.98
2018-10-16T19:33:24.187Z,99132.30
2018-10-16T19:35:52.563Z,99134.42
2018-10-16T19:38:20.916Z,99130.89
2018-10-16T19:40:49.308Z,99130.89
2018-10-16T19:43:17.671Z,99132.54
2018-10-16T19:45:47.178Z,99130.66
2018-10-16T19:48:15.751Z,99130.69
2018-10-16T19:50:44.331Z,99138.47
2018-10-16T19:53:12.751Z,99136.77
2018-10-16T19:55:41.571Z,99141.03
2018-10-16T19:58:09.955Z,99145.75
2018-10-16T20:00:38.374Z,99141.86
2018-10-16T20:03:06.754Z,99147.68
2018-10-16T20:05:35.127Z,99145.19
2018-10-16T20:08:03.480Z,99150.03
2018-10-16T20:10:31.841Z,99147.82
2018-10-16T20:13:00.309Z,99152.19
2018-10-16T20:15:28.760Z,99151.14
2018-10-16T20:17:57.070Z,99155.13
2018-10-16T20:20:25.487Z,99158.77
2018-10-16T20:22:54.211Z,99152.91
2018-10-16T20:25:22.616Z,99154.98
2018-10-16T20:27:50.946Z,99157.22
2018-10-16T20:30:19.326Z,99154.25
2018-10-16T20:32:47.747Z,99154.89
2018-10-16T20:35:16.093Z,99162.66
2018-10-16T20:37:44.456Z,99156.52
2018-10-16T20:40:12.873Z,99162.45
2018-10-16T20:42:41.259Z,99160.83
2018-10-16T20:45:09.682Z,99163.99
2018-10-16T20:47:38.399Z,99158.72
2018-10-16T20:50:07.837Z,99162.03
2018-10-16T20:52:36.223Z,99162.41
2018-10-16T20:55:04.689Z,99157.39
2018-10-16T20:57:33.180Z,99165.29
2018-10-16T21:00:02.484Z,99163.64
2018-10-16T21:02:31.871Z,99160.55
2018-10-16T21:05:00.502Z,99167.77
2018-10-16T21:07:29.441Z,99169.18
2018-10-16T21:09:57.736Z,99166.08
2018-10-16T21:12:26.161Z,99170.13
2018-10-16T21:14:54.624Z,99168.58
2018-10-16T21:17:22.999Z,99171.11
2018-10-16T21:19:51.352Z,99163.19
2018-10-16T21:22:19.717Z,99165.26
2018-10-16T21:24:48.054Z,99168.69
2018-10-16T21:27:16.558Z,99167.52
2018-10-16T21:29:44.874Z,99161.95
2018-10-16T21:32:13.217Z,99162.61
2018-10-16T21:34:41.588Z,99159.45
2018-10-16T21:37:10.146Z,99166.47
2018-10-16T21:39:38.428Z,99157.13
2018-10-16T21:42:06.794Z,99158.31
2018-10-16T21:44:35.150Z,99166.86
2018-10-16T21:47:03.586Z,99153.69
2018-10-16T21:49:31.878Z,99155.38
2018-10-16T21:52:00.223Z,99148.84
2018-10-16T21:54:28.698Z,99145.16
2018-10-16T21:56:57.116Z,99148.14
2018-10-16T21:59:25.487Z,99146.79
2018-10-16T22:01:59.133Z,99150.94
2018-10-16T22:04:27.715Z,99148.80
2018-10-16T22:06:56.223Z,99151.64
2018-10-16T22:09:24.549Z,99150.75
2018-10-16T22:11:52.926Z,99155.22
2018-10-16T22:14:22.355Z,99156.22
2018-10-16T22:16:50.737Z,99155.29
2018-10-16T22:19:19.150Z,99150.65
2018-10-16T22:21:47.486Z,99154.80
2018-10-16T22:24:15.807Z,99158.38
2018-10-16T22:26:44.176Z,99160.59
2018-10-16T22:29:12.622Z,99158.52
2018-10-16T22:31:40.902Z,99155.59
2018-10-16T22:34:09.252Z,99154.23
2018-10-16T22:36:38.191Z,99157.48
2018-10-16T22:39:08.670Z,99149.23
2018-10-16T22:41:37.370Z,99151.20
2018-10-16T22:44:06.517Z,99148.48
2018-10-16T22:46:35.090Z,99150.45
2018-10-16T22:49:03.495Z,99151.42
2018-10-16T22:51:31.812Z,99154.81
2018-10-16T22:54:00.318Z,99151.16
2018-10-16T22:56:28.685Z,99145.59
2018-10-16T22:58:57.003Z,99147.28
2018-10-16T23:01:25.410Z,99144.70
2018-10-16T23:03:53.826Z,99145.39
2018-10-16T23:06:22.138Z,99143.02
2018-10-16T23:08:50.554Z,99143.12
2018-10-16T23:11:19.015Z,99142.96
2018-10-16T23:13:47.281Z,99138.59
2018-10-16T23:16:15.813Z,99139.05
2018-10-16T23:18:44.292Z,99136.34
2018-10-16T23:21:12.646Z,99135.84
2018-10-16T23:23:40.999Z,99136.66
2018-10-16T23:26:09.553Z,99140.91
2018-10-16T23:28:38.317Z,99139.75
2018-10-16T23:31:06.906Z,99140.45
2018-10-16T23:33:35.527Z,99144.24
2018-10-16T23:36:03.854Z,99143.27
2018-10-16T23:38:32.230Z,99142.16
2018-10-16T23:41:00.594Z,99139.53
2018-10-16T23:43:28.955Z,99132.94
2018-10-16T23:45:57.274Z,99132.04
2018-10-16T23:48:25.682Z,99130.90
2018-10-16T23:50:54.019Z,99135.20
2018-10-16T23:53:22.372Z,99132.86
2018-10-16T23:55:50.802Z,99130.69
2018-10-16T23:58:19.138Z,99128.03
